Nearby METAR Reports

 

KBGR - Bangor, Maine, USA
Distance from station: E 5mi, 8km
Updated: Mon, 23-Sep-2019 2:53am EDT
Mostly cloudy
Mostly cloudy
 Wind from S
Wind: S 9 mph , 15 km/h
Temperature: 66°F , 19°C
Dew Point: 61°F , 16°C
Humidity: 83%
Barometer: 29.77 inHg , 1008.1 hPa
Clouds: Mostly cloudy
Visibility: 10 miles , 16 km
Cloud details: Partly cloudy 12000 ft
Mostly cloudy 20000 ft
2019/09/23 06:53 KBGR 230653Z 19008KT 10SM SCT120 BKN200 19/16 A2977 RMK AO2 SLP079 T01940156
KBHB - Bar Harbor, Maine, USA
Distance from station: SE 37mi, 59km
Updated: Mon, 23-Sep-2019 2:56am EDT
Clear
Clear
 Wind from SSW
Wind: SSW 8 mph , 13 km/h
Temperature: 63°F , 17°C
Dew Point: 61°F , 16°C
Humidity: 94%
Barometer: 29.81 inHg , 1009.5 hPa
Clouds: Clear
Visibility: 10 miles , 16 km
2019/09/23 06:56 KBHB 230656Z AUTO 20007KT 10SM CLR 17/16 A2981 RMK AO2 SLP095 T01670156
 
KWVL - Waterville, Maine, USA
Distance from station: WSW 42mi, 68km
Updated: Mon, 23-Sep-2019 2:56am EDT
Clear
Clear
 Wind from SSW
Wind: SSW 5 mph , 7 km/h
Temperature: 64°F , 18°C
Dew Point: 61°F , 16°C
Humidity: 88%
Barometer: 29.77 inHg , 1008.1 hPa
Clouds: Clear
Visibility: 10 miles , 16 km
2019/09/23 06:56 KWVL 230656Z AUTO 20004KT 10SM CLR 18/16 A2977 RMK AO2 SLP104 T01830161
KRKD - Rockland/Knox, Maine, USA
Distance from station: S 52mi, 84km
Updated: Mon, 23-Sep-2019 2:56am EDT
Clear
Clear
 Wind from SW
Wind: SW 13 mph , 20 km/h
Temperature: 66°F , 19°C
Dew Point: 63°F , 17°C
Humidity: 88%
Barometer: 29.82 inHg , 1009.8 hPa
Clouds: Clear
Visibility: 10 miles , 16 km
2019/09/23 06:56 KRKD 230656Z AUTO 23011KT 10SM CLR 19/17 A2982 RMK AO2 SLP096 T01940167
 
KAUG - Augusta, Maine, USA
Distance from station: SW 55mi, 89km
Updated: Mon, 23-Sep-2019 2:53am EDT
Clear
Clear
 Wind from SSW
Wind: SSW 8 mph , 13 km/h
Temperature: 66°F , 19°C
Dew Point: 61°F , 16°C
Humidity: 83%
Barometer: 29.80 inHg , 1009.1 hPa
Clouds: Clear
Visibility: 10 miles , 16 km
2019/09/23 06:53 KAUG 230653Z AUTO 20007KT 10SM CLR 19/16 A2980 RMK AO2 SLP090 T01890161
KGNR - Greenville, Maine, USA
Distance from station: NW 55mi, 89km
Updated: Mon, 23-Sep-2019 2:56am EDT

 Wind from calm
Wind: Calm
Temperature: 70°F , 21°C
Dew Point: 61°F , 16°C
Humidity: 73%
Barometer: 29.75 inHg , 1007.5 hPa
2019/09/23 06:56 KGNR 230656Z AUTO 00000KT 21/16 A2975 RMK AO1 SLP068 T02060161 $
 
KMLT - Millinocket, Maine, USA
Distance from station: N 59mi, 95km
Updated: Mon, 23-Sep-2019 2:53am EDT
Mostly cloudy
Mostly cloudy
 Wind from varies
Wind: varies 5 mph , 7 km/h
Temperature: 70°F , 21°C
Dew Point: 61°F , 16°C
Humidity: 73%
Barometer: 29.72 inHg , 1006.4 hPa
Clouds: Mostly cloudy
Visibility: 10 miles , 16 km
Cloud details: Mostly cloudy 11000 ft
2019/09/23 06:53 KMLT 230653Z AUTO VRB04KT 10SM BKN110 21/16 A2972 RMK AO2 SLP067 T02110161
KIWI - Wiscasset, Maine, USA
Distance from station: SW 70mi, 113km
Updated: Mon, 23-Sep-2019 2:53am EDT
Clear
Clear
 Wind from calm
Wind: Calm
Temperature: 66°F , 19°C
Dew Point: 61°F , 16°C
Humidity: 83%
Barometer: 29.83 inHg , 1010.2 hPa
Clouds: Clear
Visibility: 10 miles , 16 km
2019/09/23 06:53 KIWI 230653Z AUTO 00000KT 10SM CLR 19/16 A2983 RMK AO2 SLP101 T01940161
 
CWSS - St. Stephen (mar, New Brunswick, Canada
Distance from station: ENE 86mi, 138km
Updated: Mon, 23-Sep-2019 2:00am EDT

 Wind from SW
Wind: SW 2 mph , 4 km/h
Temperature: 64°F , 18°C
Dew Point: 59°F , 15°C
Humidity: 83%
2019/09/23 06:00 CWSS 230600Z AUTO 22002KT 18/15 RMK AO1 SLP080 T01760148 56020
KLEW - Auburn/Lewiston, Maine, USA
Distance from station: SW 86mi, 138km
Updated: Mon, 23-Sep-2019 2:56am EDT
Clear
Clear
 Wind from S
Wind: S 8 mph , 13 km/h
Temperature: 70°F , 21°C
Dew Point: 63°F , 17°C
Humidity: 78%
Barometer: 29.81 inHg , 1009.5 hPa
Clouds: Clear
Visibility: 10 miles , 16 km
2019/09/23 06:56 KLEW 230656Z AUTO 18007KT 10SM CLR 21/17 A2981 RMK AO2 SLP099 T02110172
 
KHUL - Houlton, Maine, USA
Distance from station: NNE 105mi, 169km
Updated: Mon, 23-Sep-2019 2:53am EDT
Mostly cloudy
Mostly cloudy
 Wind from SSW
Wind: SSW 9 mph , 15 km/h
Temperature: 68°F , 20°C
Dew Point: 61°F , 16°C
Humidity: 78%
Barometer: 29.67 inHg , 1004.7 hPa
Clouds: Mostly cloudy
Visibility: 10 miles , 16 km
Cloud details: Mostly cloudy 11000 ft
2019/09/23 06:53 KHUL 230653Z AUTO 21008KT 10SM BKN110 20/16 A2967 RMK AO2 SLP045 T02000156
KPWM - Portland, Maine, USA
Distance from station: SW 105mi, 170km
Updated: Mon, 23-Sep-2019 2:51am EDT
Clear
Clear
 Wind from WSW
Wind: WSW 6 mph , 9 km/h
Temperature: 70°F , 21°C
Dew Point: 61°F , 16°C
Humidity: 73%
Barometer: 29.83 inHg , 1010.2 hPa
Clouds: Clear
Visibility: 10 miles , 16 km
2019/09/23 06:51 KPWM 230651Z AUTO 24005KT 10SM CLR 21/16 A2983 RMK AO2 SLP101 T02060161
 
KBML - Berlin, New Hampshire, USA
Distance from station: W 113mi, 181km
Updated: Mon, 23-Sep-2019 2:52am EDT
Clear
Clear
 Wind from S
Wind: S 7 mph , 11 km/h
Temperature: 73°F , 23°C
Dew Point: 63°F , 17°C
Humidity: 69%
Barometer: 29.82 inHg , 1009.8 hPa
Clouds: Clear
Visibility: 10 miles , 16 km
2019/09/23 06:52 KBML 230652Z AUTO 18006KT 10SM CLR 23/17 A2982 RMK AO2 SLP089 T02330167 $
KIZG - Fryeburg, Maine, USA
Distance from station: WSW 116mi, 186km
Updated: Mon, 23-Sep-2019 2:54am EDT
Clear
Clear
 Wind from WSW
Wind: WSW 8 mph , 13 km/h
Temperature: 75°F , 24°C
Dew Point: 63°F , 17°C
Humidity: 65%
Barometer: 29.82 inHg , 1009.8 hPa
Clouds: Clear
Visibility: 10 miles , 16 km
2019/09/23 06:54 KIZG 230654Z AUTO 24007KT 200V270 10SM CLR 24/17 A2982 RMK AO2 SLP094 T02390167 $
 
CWPE - Point Lepreau, New Brunswick, Canada
Distance from station: E 121mi, 195km
Updated: Mon, 23-Sep-2019 2:00am EDT

 Wind from SW
Wind: SW 7 mph , 11 km/h
Temperature: 57°F , 14°C
Dew Point: 57°F , 14°C
Humidity: 100%
2019/09/23 06:00 CWPE 230600Z AUTO 23006KT 14/14 RMK AO1 SLP089 T01350136 56020
KMWN - Mount Washington, New Hampshire, USA
Distance from station: WSW 123mi, 198km
Updated: Mon, 23-Sep-2019 2:56am EDT
Fog, Overcast
Fog, Overcast
 Wind from W
Wind: W 75 mph , 120 km/h, Gust: 83 mph , 133 km/h
Temperature: 54°F , 12°C
Dew Point: 54°F , 12°C
Humidity: 100%
Summary: Fog
Clouds: Overcast
Visibility: 0 miles , 0 km
Cloud details: Overcast 0 ft
2019/09/23 06:56 KMWN 230656Z 27065G72KT 0SM FG VV000 12/12 RMK
 
KPQI - Presque Isle, Maine, USA
Distance from station: ESE 136mi, 219km
Updated: Mon, 23-Sep-2019 2:56am EDT
Partly cloudy
Partly cloudy
 Wind from SW
Wind: SW 15 mph , 24 km/h, Gust: 24 mph , 39 km/h
Temperature: 75°F , 24°C
Dew Point: 61°F , 16°C
Humidity: 61%
Barometer: 29.62 inHg , 1003 hPa
Clouds: Partly cloudy
Visibility: 10 miles , 16 km
Cloud details: Partly cloudy 7000 ft
2019/09/23 06:56 KPQI 230656Z AUTO 22013G21KT 10SM SCT070 24/16 A2962 RMK AO2 SLP050 T02440161
KCAR - Caribou, Maine, USA
Distance from station: NNE 148mi, 238km
Updated: Mon, 23-Sep-2019 2:54am EDT
Clear
Clear
 Wind from SW
Wind: SW 15 mph , 24 km/h, Gust: 26 mph , 43 km/h
Temperature: 73°F , 23°C
Dew Point: 61°F , 16°C
Humidity: 65%
Barometer: 29.60 inHg , 1002.4 hPa
Clouds: Clear
Visibility: 10 miles , 16 km
2019/09/23 06:54 KCAR 230654Z AUTO 23013G23KT 10SM CLR 23/16 A2960 RMK AO2 SLP022 T02330156